DAUH/HME METAR and TAF weather

Enter ICAO airport designator
Station Type Date Time Source
DAUH METAR 2019/10/15 08:30 UTC NOAA

DAUH 150830Z 05006KT CAVOK 27/12 Q1017


Station Type Date Time Source
DAUH Decoded METAR 2019/10/15 08:30 UTC NOAA

Hassi-Messaoud, Algeria (DAUH) 31-40N 006-09E 142M
Oct 15, 2019 - 04:30 AM EDT / 2019.10.15 0830 UTC
Wind: from the NE (050 degrees) at 7 MPH (6 KT):0
Visibility: greater than 7 mile(s):0
Temperature: 80 F (27 C)
Dew Point: 53 F (12 C)
Relative Humidity: 39%
Pressure (altimeter): 30.03 in. Hg (1017 hPa)
ob: DAUH 150830Z 05006KT CAVOK 27/12 Q1017
cycle: 8

Station Type Date Time Source
DAUH TAF 2019/10/15 06:33 UTC NOAA

TAF TAF DAUH 150500Z 1506/1606 02008KT CAVOK PROB30
TEMPO 1510/1516 FEW040TCU PROB40
TEMPO 1519/1523 04015G25KT 5000 DRSA

Example: see airport list